createdAt,value
2022-11-24T00:00:43.041Z,2.22
2022-11-24T00:01:46.293Z,2.40
2022-11-24T00:02:48.559Z,2.67
2022-11-24T00:03:55.006Z,2.42
2022-11-24T00:04:57.103Z,2.47
2022-11-24T00:06:05.511Z,2.40
2022-11-24T00:07:08.685Z,2.38
2022-11-24T00:08:11.760Z,2.28
2022-11-24T00:09:14.955Z,1.95
2022-11-24T00:10:17.319Z,2.60
2022-11-24T00:11:22.164Z,1.80
2022-11-24T00:12:24.380Z,1.75
2022-11-24T00:13:29.364Z,2.30
2022-11-24T00:14:32.720Z,2.13
2022-11-24T00:15:35.055Z,2.30
2022-11-24T00:16:39.065Z,2.15
2022-11-24T00:17:41.292Z,2.28
2022-11-24T00:18:46.072Z,2.00
2022-11-24T00:19:48.301Z,2.20
2022-11-24T00:20:53.739Z,2.00
2022-11-24T00:21:55.893Z,2.00
2022-11-24T00:22:59.205Z,2.28
2022-11-24T00:24:01.759Z,2.33
2022-11-24T00:25:05.576Z,2.10
2022-11-24T00:26:09.412Z,1.80
2022-11-24T00:27:12.572Z,1.95
2022-11-24T00:28:14.780Z,1.73
2022-11-24T00:29:19.584Z,2.45
2022-11-24T00:30:21.757Z,2.00
2022-11-24T00:31:26.671Z,1.65
2022-11-24T00:32:28.973Z,2.30
2022-11-24T00:33:32.487Z,2.80
2022-11-24T00:34:35.986Z,2.13
2022-11-24T00:35:38.245Z,1.80
2022-11-24T00:36:42.829Z,2.13
2022-11-24T00:37:45.005Z,2.05
2022-11-24T00:38:48.389Z,2.10
2022-11-24T00:39:50.576Z,2.40
2022-11-24T00:40:54.369Z,1.80
2022-11-24T00:41:57.596Z,2.30
2022-11-24T00:43:00.457Z,2.72
2022-11-24T00:44:04.197Z,2.05
2022-11-24T00:45:13.846Z,2.25
2022-11-24T00:46:17.678Z,2.35
2022-11-24T00:47:20.109Z,2.03
2022-11-24T00:48:24.209Z,1.90
2022-11-24T00:49:26.447Z,2.28
2022-11-24T00:50:30.025Z,2.10
2022-11-24T00:51:32.250Z,1.98
2022-11-24T00:52:35.690Z,2.80
2022-11-24T00:53:38.038Z,2.65
2022-11-24T00:54:41.261Z,1.98
2022-11-24T00:55:43.462Z,1.77
2022-11-24T00:56:46.830Z,2.00
2022-11-24T00:57:49.082Z,2.10
2022-11-24T00:58:52.434Z,2.40
2022-11-24T00:59:54.631Z,2.10
2022-11-24T01:01:03.636Z,1.60
2022-11-24T01:02:06.041Z,1.88
2022-11-24T01:03:09.369Z,1.80
2022-11-24T01:04:11.667Z,2.38
2022-11-24T01:05:14.901Z,2.05
2022-11-24T01:06:18.604Z,2.13
2022-11-24T01:07:21.935Z,2.00
2022-11-24T01:08:24.206Z,2.08
2022-11-24T01:09:27.907Z,2.30
2022-11-24T01:10:30.545Z,1.58
2022-11-24T01:11:56.223Z,2.10
2022-11-24T01:12:58.350Z,2.50
2022-11-24T01:14:01.544Z,2.50
2022-11-24T01:15:04.144Z,2.10
2022-11-24T01:16:15.591Z,1.50
2022-11-24T01:17:18.981Z,1.95
2022-11-24T01:18:21.146Z,1.70
2022-11-24T01:19:24.943Z,2.33
2022-11-24T01:20:27.188Z,1.60
2022-11-24T01:21:30.489Z,1.73
2022-11-24T01:22:33.000Z,2.65
2022-11-24T01:23:36.210Z,1.85
2022-11-24T01:24:38.457Z,1.52
2022-11-24T01:25:41.730Z,1.80
2022-11-24T01:26:44.126Z,2.22
2022-11-24T01:27:47.392Z,1.73
2022-11-24T01:28:53.318Z,1.70
2022-11-24T01:29:56.541Z,1.60
2022-11-24T01:30:58.985Z,1.80
2022-11-24T01:32:03.706Z,1.90
2022-11-24T01:33:05.917Z,1.48
2022-11-24T01:34:09.510Z,1.90
2022-11-24T01:35:11.833Z,1.50
2022-11-24T01:36:15.365Z,1.67
2022-11-24T01:37:17.633Z,2.00
2022-11-24T01:38:20.902Z,3.05
2022-11-24T01:39:23.081Z,2.65
2022-11-24T01:40:26.343Z,2.03
2022-11-24T01:41:28.545Z,3.08
2022-11-24T01:42:43.972Z,3.55
2022-11-24T01:43:46.408Z,3.38
2022-11-24T01:44:53.024Z,2.42
2022-11-24T01:45:56.148Z,1.77
2022-11-24T01:47:01.821Z,2.00
2022-11-24T01:48:10.460Z,1.75
2022-11-24T01:49:18.014Z,1.90
2022-11-24T01:50:20.645Z,1.67
2022-11-24T01:51:26.537Z,1.83
2022-11-24T01:52:34.450Z,1.80
2022-11-24T01:53:39.253Z,2.33
2022-11-24T01:54:45.953Z,1.75
2022-11-24T01:55:50.096Z,1.90
2022-11-24T01:56:54.570Z,1.90
2022-11-24T01:58:00.943Z,1.70
2022-11-24T01:59:04.914Z,1.58
2022-11-24T02:00:11.813Z,1.20
2022-11-24T02:01:17.122Z,1.90
2022-11-24T02:02:22.329Z,1.70
2022-11-24T02:03:31.248Z,2.13
2022-11-24T02:04:35.826Z,1.85
2022-11-24T02:05:42.169Z,1.42
2022-11-24T02:06:47.468Z,1.63
2022-11-24T02:07:51.850Z,1.95
2022-11-24T02:09:00.176Z,1.42
2022-11-24T02:10:04.849Z,1.55
2022-11-24T02:11:08.236Z,1.63
2022-11-24T02:12:11.438Z,1.45
2022-11-24T02:13:16.581Z,1.95
2022-11-24T02:14:19.648Z,1.40
2022-11-24T02:15:23.609Z,1.40
2022-11-24T02:16:26.663Z,1.48
2022-11-24T02:17:29.940Z,1.52
2022-11-24T02:18:33.831Z,1.70
2022-11-24T02:19:45.236Z,1.20
2022-11-24T02:20:47.477Z,1.50
2022-11-24T02:21:50.868Z,1.38
2022-11-24T02:22:57.190Z,1.10
2022-11-24T02:24:11.224Z,1.33
2022-11-24T02:25:22.879Z,1.40
2022-11-24T02:26:41.187Z,1.20
2022-11-24T02:27:49.349Z,1.00
2022-11-24T02:28:55.922Z,1.52
2022-11-24T02:29:58.420Z,1.63
2022-11-24T02:31:03.225Z,1.45
2022-11-24T02:32:07.658Z,1.30
2022-11-24T02:33:12.756Z,1.40
2022-11-24T02:34:14.947Z,1.35
2022-11-24T02:35:18.435Z,1.50
2022-11-24T02:36:20.654Z,1.10
2022-11-24T02:37:24.038Z,1.48
2022-11-24T02:38:33.762Z,1.50
2022-11-24T02:39:37.187Z,1.25
2022-11-24T02:40:41.907Z,0.90
2022-11-24T02:41:53.447Z,1.10
2022-11-24T02:43:00.293Z,1.15
2022-11-24T02:44:03.841Z,1.10
2022-11-24T02:45:08.929Z,2.35
2022-11-24T02:46:12.507Z,1.65
2022-11-24T02:47:14.726Z,1.90
2022-11-24T02:48:18.692Z,1.42
2022-11-24T02:49:20.956Z,1.35
2022-11-24T02:50:24.236Z,1.52
2022-11-24T02:51:26.404Z,1.30
2022-11-24T02:52:29.655Z,1.50
2022-11-24T02:53:31.984Z,1.58
2022-11-24T02:54:35.611Z,1.05
2022-11-24T02:55:37.990Z,1.20
2022-11-24T02:56:41.268Z,1.23
2022-11-24T02:57:44.992Z,1.00
2022-11-24T02:58:48.410Z,0.88
2022-11-24T02:59:50.704Z,0.85
2022-11-24T03:00:54.329Z,1.10
2022-11-24T03:01:56.580Z,0.80
2022-11-24T03:03:00.152Z,0.90
2022-11-24T03:04:02.429Z,0.95
2022-11-24T03:05:06.473Z,1.15
2022-11-24T03:06:08.779Z,1.00
2022-11-24T03:07:12.208Z,1.30
2022-11-24T03:08:14.487Z,0.93
2022-11-24T03:09:17.872Z,1.05
2022-11-24T03:10:20.059Z,1.75
2022-11-24T03:11:23.266Z,1.00
2022-11-24T03:12:25.432Z,0.88
2022-11-24T03:13:30.376Z,0.93
2022-11-24T03:14:32.907Z,1.20
2022-11-24T03:15:36.454Z,1.10
2022-11-24T03:16:38.712Z,1.27
2022-11-24T03:17:41.925Z,1.08
2022-11-24T03:18:44.121Z,1.10
2022-11-24T03:19:47.438Z,0.95
2022-11-24T03:20:49.813Z,0.93
2022-11-24T03:21:53.081Z,0.90
2022-11-24T03:22:55.285Z,1.48
2022-11-24T03:23:58.572Z,1.05
2022-11-24T03:25:01.052Z,1.10
2022-11-24T03:26:10.932Z,1.13
2022-11-24T03:27:13.149Z,1.20
2022-11-24T03:28:17.040Z,0.90
2022-11-24T03:29:20.840Z,0.90
2022-11-24T03:30:24.204Z,1.00
2022-11-24T03:31:26.693Z,1.35
2022-11-24T03:32:30.141Z,1.10
2022-11-24T03:33:32.427Z,0.95
2022-11-24T03:34:36.036Z,1.13
2022-11-24T03:35:38.493Z,1.08
2022-11-24T03:36:41.790Z,1.10
2022-11-24T03:37:43.992Z,0.90
2022-11-24T03:38:47.503Z,1.00
2022-11-24T03:39:49.945Z,1.15
2022-11-24T03:40:53.321Z,1.20
2022-11-24T03:41:55.902Z,1.13
2022-11-24T03:42:59.342Z,1.10
2022-11-24T03:44:01.627Z,0.82
2022-11-24T03:46:30.927Z,1.23
2022-11-24T03:47:33.202Z,0.95
2022-11-24T03:48:36.530Z,0.90
2022-11-24T03:49:38.967Z,0.98
2022-11-24T03:50:42.329Z,0.90
2022-11-24T03:51:44.811Z,1.23
2022-11-24T03:52:48.272Z,0.95
2022-11-24T03:53:50.593Z,0.80
2022-11-24T03:54:54.099Z,0.93
2022-11-24T03:55:56.639Z,1.00
2022-11-24T03:57:00.188Z,0.80
2022-11-24T03:58:02.609Z,1.00
2022-11-24T03:59:05.820Z,0.90
2022-11-24T04:00:11.856Z,0.80
2022-11-24T04:01:15.297Z,1.00
2022-11-24T04:02:17.799Z,1.08
2022-11-24T04:03:20.402Z,0.90
2022-11-24T04:04:23.743Z,0.88
2022-11-24T04:05:25.968Z,0.85
2022-11-24T04:06:29.207Z,0.90
2022-11-24T04:07:31.433Z,1.00
2022-11-24T04:08:34.833Z,1.30
2022-11-24T04:09:36.973Z,1.00
2022-11-24T04:10:40.801Z,0.85
2022-11-24T04:12:01.679Z,1.00
2022-11-24T04:13:04.737Z,0.80
2022-11-24T04:14:13.222Z,0.80
2022-11-24T04:15:19.769Z,0.95
2022-11-24T04:16:21.960Z,0.98
2022-11-24T04:17:25.291Z,1.00
2022-11-24T04:18:27.451Z,1.33
2022-11-24T04:19:30.601Z,1.42
2022-11-24T04:20:33.352Z,1.50
2022-11-24T04:21:36.614Z,1.35
2022-11-24T04:22:39.022Z,1.00
2022-11-24T04:23:42.269Z,1.00
2022-11-24T04:24:44.339Z,1.10
2022-11-24T04:25:47.491Z,1.83
2022-11-24T04:26:49.707Z,0.90
2022-11-24T04:27:54.122Z,0.77
2022-11-24T04:28:56.166Z,1.20
2022-11-24T04:29:59.484Z,0.80
2022-11-24T04:31:04.378Z,1.25
2022-11-24T04:32:08.870Z,1.20
2022-11-24T04:33:13.085Z,1.00
2022-11-24T04:34:15.284Z,1.00
2022-11-24T04:35:18.996Z,0.90
2022-11-24T04:36:21.020Z,1.17
2022-11-24T04:37:24.170Z,0.73
2022-11-24T04:39:22.942Z,1.00
2022-11-24T04:39:49.451Z,1.20
2022-11-24T04:40:52.656Z,1.10
2022-11-24T04:41:54.903Z,0.80
2022-11-24T04:42:58.282Z,1.13
2022-11-24T04:44:00.412Z,1.30
2022-11-24T04:45:03.839Z,1.27
2022-11-24T04:46:11.162Z,1.02
2022-11-24T04:47:17.159Z,0.98
2022-11-24T04:48:19.208Z,1.00
2022-11-24T04:49:22.253Z,1.10
2022-11-24T04:50:24.503Z,1.58
2022-11-24T04:51:27.668Z,1.17
2022-11-24T04:52:30.957Z,1.00
2022-11-24T04:53:34.098Z,0.90
2022-11-24T04:54:37.028Z,1.20
2022-11-24T04:55:40.403Z,0.90
2022-11-24T04:56:44.007Z,0.93
2022-11-24T04:57:47.356Z,1.00
2022-11-24T04:58:49.541Z,1.05
2022-11-24T04:59:53.146Z,0.95
2022-11-24T05:00:55.242Z,0.90
2022-11-24T05:02:00.014Z,1.13
2022-11-24T05:03:02.182Z,1.13
2022-11-24T05:04:05.639Z,0.90
2022-11-24T05:05:08.858Z,1.33
2022-11-24T05:06:12.248Z,1.25
2022-11-24T05:07:18.683Z,1.30
2022-11-24T05:08:22.319Z,1.75
2022-11-24T05:09:41.762Z,1.20
2022-11-24T05:10:48.113Z,1.17
2022-11-24T05:11:50.425Z,1.45
2022-11-24T05:12:57.474Z,1.10
2022-11-24T05:14:01.085Z,0.90
2022-11-24T05:15:05.384Z,1.15
2022-11-24T05:16:08.864Z,1.15
2022-11-24T05:17:12.611Z,1.23
2022-11-24T05:18:18.926Z,1.10
2022-11-24T05:19:21.243Z,1.20
2022-11-24T05:20:25.037Z,1.52
2022-11-24T05:21:28.587Z,1.23
2022-11-24T05:22:31.634Z,1.00
2022-11-24T05:23:34.756Z,1.10
2022-11-24T05:24:36.890Z,1.60
2022-11-24T05:25:44.832Z,1.27
2022-11-24T05:26:49.575Z,2.10
2022-11-24T05:27:52.812Z,2.15
2022-11-24T05:28:55.086Z,1.30
2022-11-24T05:29:58.570Z,1.10
2022-11-24T05:31:01.109Z,1.75
2022-11-24T05:32:04.862Z,1.65
2022-11-24T05:33:12.189Z,1.55
2022-11-24T05:34:15.513Z,1.40
2022-11-24T05:35:18.988Z,1.70
2022-11-24T05:36:39.910Z,1.65
2022-11-24T05:37:43.109Z,1.95
2022-11-24T05:38:45.246Z,1.77
2022-11-24T05:39:48.600Z,1.73
2022-11-24T05:40:50.691Z,1.30
2022-11-24T05:41:54.069Z,1.63
2022-11-24T05:42:56.136Z,1.60
2022-11-24T05:43:59.256Z,1.45
2022-11-24T05:45:01.397Z,1.67
2022-11-24T05:46:04.576Z,1.55
2022-11-24T05:47:06.791Z,2.22
2022-11-24T05:48:14.224Z,2.35
2022-11-24T05:49:16.526Z,1.88
2022-11-24T05:51:56.698Z,1.88
2022-11-24T05:53:02.759Z,2.00
2022-11-24T05:54:06.257Z,1.48
2022-11-24T05:55:10.038Z,1.60
2022-11-24T05:56:13.411Z,1.77
2022-11-24T05:57:16.899Z,2.42
2022-11-24T05:58:20.069Z,2.38
2022-11-24T05:59:22.199Z,2.97
2022-11-24T06:00:25.440Z,2.00
2022-11-24T06:01:27.866Z,2.00
2022-11-24T06:02:31.242Z,1.90
2022-11-24T06:03:36.035Z,1.95
2022-11-24T06:04:38.334Z,2.03
2022-11-24T06:05:42.563Z,2.35
2022-11-24T06:06:46.219Z,1.70
2022-11-24T06:07:49.720Z,2.00
2022-11-24T06:08:52.127Z,2.13
2022-11-24T06:09:55.539Z,1.73
2022-11-24T06:11:17.182Z,2.55
2022-11-24T06:12:21.173Z,1.73
2022-11-24T06:13:23.628Z,1.70
2022-11-24T06:14:27.109Z,2.05
2022-11-24T06:15:29.268Z,2.47
2022-11-24T06:16:32.824Z,2.60
2022-11-24T06:17:35.151Z,1.50
2022-11-24T06:18:40.235Z,2.28
2022-11-24T06:19:45.587Z,1.65
2022-11-24T06:21:09.895Z,1.58
2022-11-24T06:22:12.777Z,2.25
2022-11-24T06:23:15.042Z,1.98
2022-11-24T06:24:18.374Z,1.70
2022-11-24T06:25:21.594Z,2.13
2022-11-24T06:26:23.785Z,1.90
2022-11-24T06:27:27.426Z,1.77
2022-11-24T06:28:29.806Z,1.70
2022-11-24T06:29:33.505Z,1.50
2022-11-24T06:30:41.580Z,2.33
2022-11-24T06:31:43.966Z,2.17
2022-11-24T06:32:49.960Z,2.25
2022-11-24T06:33:54.346Z,1.90
2022-11-24T06:34:57.978Z,1.38
2022-11-24T06:36:02.396Z,2.00
2022-11-24T06:37:06.009Z,2.50
2022-11-24T06:38:08.512Z,1.58
2022-11-24T06:39:12.248Z,1.60
2022-11-24T06:40:15.635Z,2.40
2022-11-24T06:41:19.626Z,2.33
2022-11-24T06:42:23.172Z,2.10
2022-11-24T06:43:27.086Z,1.52
2022-11-24T06:44:30.983Z,2.35
2022-11-24T06:45:33.558Z,2.83
2022-11-24T06:46:37.190Z,2.75
2022-11-24T06:47:39.534Z,1.77
2022-11-24T06:48:42.908Z,2.67
2022-11-24T06:49:49.989Z,2.10
2022-11-24T06:50:52.982Z,1.83
2022-11-24T06:51:56.499Z,2.10
2022-11-24T06:52:58.841Z,2.15
2022-11-24T06:54:02.151Z,2.83
2022-11-24T06:55:04.911Z,2.85
2022-11-24T06:56:15.642Z,2.95
2022-11-24T06:57:19.964Z,2.58
2022-11-24T06:58:22.724Z,2.10
2022-11-24T06:59:26.572Z,2.50
2022-11-24T07:00:29.371Z,2.30
2022-11-24T07:01:32.968Z,2.05
2022-11-24T07:02:41.086Z,1.80
2022-11-24T07:03:48.371Z,2.58
2022-11-24T07:04:53.480Z,1.60
2022-11-24T07:05:59.944Z,2.05
2022-11-24T07:07:03.318Z,2.40
2022-11-24T07:08:07.268Z,1.95
2022-11-24T07:09:10.888Z,1.80
2022-11-24T07:10:14.276Z,2.83
2022-11-24T07:11:18.465Z,2.05
2022-11-24T07:12:21.987Z,1.65
2022-11-24T07:13:24.296Z,2.30
2022-11-24T07:14:29.916Z,2.00
2022-11-24T07:15:32.306Z,2.13
2022-11-24T07:16:35.963Z,1.75
2022-11-24T07:17:38.873Z,1.83
2022-11-24T07:18:42.286Z,1.60
2022-11-24T07:19:44.340Z,1.60
2022-11-24T07:20:48.947Z,1.88
2022-11-24T07:21:51.012Z,1.88
2022-11-24T07:22:57.309Z,2.35
2022-11-24T07:23:59.417Z,2.60
2022-11-24T07:25:04.830Z,2.00
2022-11-24T07:26:08.832Z,2.67
2022-11-24T07:27:10.893Z,2.53
2022-11-24T07:28:14.037Z,2.55
2022-11-24T07:29:16.212Z,2.65
2022-11-24T07:30:19.557Z,2.03
2022-11-24T07:31:25.038Z,2.28
2022-11-24T07:32:28.436Z,1.77
2022-11-24T07:33:30.552Z,1.80
2022-11-24T07:34:34.136Z,2.72
2022-11-24T07:35:37.655Z,1.50
2022-11-24T07:36:45.610Z,2.00
2022-11-24T07:38:04.784Z,2.10
2022-11-24T07:39:08.412Z,2.17
2022-11-24T07:40:15.952Z,2.72
2022-11-24T07:41:19.730Z,2.30
2022-11-24T07:42:23.145Z,2.00
2022-11-24T07:43:25.274Z,2.05
2022-11-24T07:44:28.867Z,1.65
2022-11-24T07:45:31.406Z,2.10
2022-11-24T07:46:41.099Z,2.08
2022-11-24T07:47:56.992Z,2.65
2022-11-24T07:49:05.280Z,2.17
2022-11-24T07:50:20.931Z,1.70
2022-11-24T07:51:31.997Z,1.80
2022-11-24T07:52:52.624Z,2.03
2022-11-24T07:54:08.611Z,1.73
2022-11-24T07:55:22.154Z,1.73
2022-11-24T07:56:35.713Z,1.80
2022-11-24T07:57:38.849Z,2.17
2022-11-24T07:58:42.073Z,2.10
2022-11-24T07:59:44.144Z,2.17
2022-11-24T08:00:47.300Z,2.10
2022-11-24T08:01:52.234Z,1.77
2022-11-24T08:02:54.738Z,1.80
2022-11-24T08:03:57.904Z,2.00
2022-11-24T08:05:00.060Z,2.30
2022-11-24T08:07:26.581Z,1.90
2022-11-24T08:08:33.226Z,1.65
2022-11-24T08:09:36.553Z,2.10
2022-11-24T08:10:38.698Z,1.73
2022-11-24T08:11:41.957Z,1.40
2022-11-24T08:12:45.083Z,1.55
2022-11-24T08:13:47.330Z,1.70
2022-11-24T08:14:50.954Z,1.95
2022-11-24T08:15:52.998Z,1.42
2022-11-24T08:16:56.217Z,2.40
2022-11-24T08:18:01.835Z,2.33
2022-11-24T08:19:04.995Z,2.20
2022-11-24T08:20:09.853Z,1.75
2022-11-24T08:21:13.361Z,1.75
2022-11-24T08:22:16.567Z,2.13
2022-11-24T08:23:18.714Z,2.83
2022-11-24T08:24:23.295Z,2.25
2022-11-24T08:25:26.920Z,1.90
2022-11-24T08:26:30.096Z,2.20
2022-11-24T08:27:32.325Z,1.80
2022-11-24T08:28:36.108Z,1.85
2022-11-24T08:29:39.159Z,2.20
2022-11-24T08:30:41.367Z,2.42
2022-11-24T08:31:44.544Z,1.52
2022-11-24T08:32:46.717Z,2.20
2022-11-24T08:33:50.319Z,2.25
2022-11-24T08:34:59.504Z,1.85
2022-11-24T08:36:07.920Z,2.03
2022-11-24T08:37:11.350Z,2.03
2022-11-24T08:38:13.405Z,2.35
2022-11-24T08:39:16.604Z,3.60
2022-11-24T08:40:20.355Z,2.22
2022-11-24T08:41:23.590Z,2.65
2022-11-24T08:42:26.692Z,2.38
2022-11-24T08:43:28.765Z,1.75
2022-11-24T08:44:32.839Z,2.35
2022-11-24T08:45:41.043Z,1.67
2022-11-24T08:46:45.143Z,2.15
2022-11-24T08:47:51.950Z,2.00
2022-11-24T08:48:56.701Z,2.08
2022-11-24T08:49:59.869Z,2.05
2022-11-24T08:51:09.629Z,1.88
2022-11-24T08:52:12.864Z,1.70
2022-11-24T08:53:16.091Z,1.33
2022-11-24T08:54:20.424Z,2.75
2022-11-24T08:55:24.110Z,1.63
2022-11-24T08:56:28.610Z,1.95
2022-11-24T08:57:31.788Z,1.73
2022-11-24T08:58:34.733Z,1.88
2022-11-24T08:59:37.953Z,1.60
2022-11-24T09:00:40.057Z,1.73
2022-11-24T09:01:43.158Z,1.50
2022-11-24T09:02:45.213Z,1.55
2022-11-24T09:03:51.014Z,2.63
2022-11-24T09:04:54.670Z,1.85
2022-11-24T09:05:57.692Z,1.60
2022-11-24T09:07:01.135Z,2.05
2022-11-24T09:08:04.244Z,1.55
2022-11-24T09:09:07.762Z,2.30
2022-11-24T09:10:10.232Z,1.85
2022-11-24T09:11:17.486Z,2.28
2022-11-24T09:12:20.784Z,1.60
2022-11-24T09:13:22.935Z,2.13
2022-11-24T09:14:26.272Z,1.58
2022-11-24T09:15:28.475Z,2.00
2022-11-24T09:16:31.600Z,1.73
2022-11-24T09:17:33.786Z,1.50
2022-11-24T09:18:37.340Z,1.67
2022-11-24T09:19:40.565Z,1.33
2022-11-24T09:20:43.895Z,2.50
2022-11-24T09:21:47.075Z,1.52
2022-11-24T09:22:49.215Z,1.73
2022-11-24T09:23:53.968Z,1.60
2022-11-24T09:24:58.172Z,1.45
2022-11-24T09:26:05.266Z,1.85
2022-11-24T09:27:10.041Z,1.60
2022-11-24T09:28:12.196Z,1.80
2022-11-24T09:29:15.482Z,2.10
2022-11-24T09:30:17.954Z,1.83
2022-11-24T09:31:22.186Z,2.03
2022-11-24T09:32:25.826Z,1.90
2022-11-24T09:33:29.377Z,2.13
2022-11-24T09:34:32.560Z,1.85
2022-11-24T09:35:38.013Z,1.90
2022-11-24T09:36:41.204Z,1.90
2022-11-24T09:37:45.898Z,1.50
2022-11-24T09:38:50.192Z,1.77
2022-11-24T09:39:53.342Z,1.90
2022-11-24T09:40:55.874Z,1.60
2022-11-24T09:42:18.962Z,1.80
2022-11-24T09:43:35.419Z,1.42
2022-11-24T09:45:15.698Z,1.90
2022-11-24T09:46:38.423Z,1.77
2022-11-24T09:47:59.307Z,2.50
2022-11-24T09:49:04.809Z,1.45
2022-11-24T09:50:15.946Z,2.10
2022-11-24T09:51:26.850Z,2.00
2022-11-24T09:52:47.131Z,1.30
2022-11-24T09:53:58.351Z,1.85
2022-11-24T09:55:52.703Z,1.90
2022-11-24T09:58:29.892Z,1.52
2022-11-24T10:05:04.122Z,1.88
2022-11-24T10:06:22.571Z,1.90
2022-11-24T10:07:31.785Z,1.90
2022-11-24T10:08:48.467Z,1.67
2022-11-24T10:10:01.588Z,1.80
2022-11-24T10:11:06.749Z,2.15
2022-11-24T10:12:24.770Z,1.50
2022-11-24T10:14:00.709Z,1.80
2022-11-24T10:15:21.589Z,1.30
2022-11-24T10:16:42.751Z,1.20
2022-11-24T10:18:04.194Z,2.00
2022-11-24T10:19:15.941Z,1.65
2022-11-24T10:20:29.097Z,1.90
2022-11-24T10:21:52.686Z,1.48
2022-11-24T10:23:13.180Z,1.30
2022-11-24T10:24:38.337Z,1.75
2022-11-24T10:25:49.508Z,1.38
2022-11-24T10:26:57.825Z,1.42
2022-11-24T10:28:04.374Z,1.40
2022-11-24T10:29:22.296Z,1.58
2022-11-24T10:30:25.649Z,1.60
2022-11-24T10:31:34.268Z,1.23
2022-11-24T10:32:42.893Z,1.60
2022-11-24T10:33:54.398Z,1.40
2022-11-24T10:35:49.192Z,1.38
2022-11-24T10:37:05.436Z,1.40
2022-11-24T10:38:32.686Z,1.52
2022-11-24T10:39:49.663Z,1.60
2022-11-24T10:47:07.970Z,1.42
2022-11-24T10:48:38.225Z,3.45
2022-11-24T10:50:06.475Z,3.70
2022-11-24T10:51:48.212Z,1.70
2022-11-24T10:53:12.904Z,2.28
2022-11-24T10:54:19.579Z,1.25
2022-11-24T10:55:23.283Z,1.63
2022-11-24T10:56:25.556Z,1.80
2022-11-24T10:57:31.145Z,1.50
2022-11-24T10:58:37.969Z,1.67
2022-11-24T10:59:40.851Z,1.98
2022-11-24T11:00:44.434Z,1.52
2022-11-24T11:01:47.023Z,1.80
2022-11-24T11:02:52.107Z,1.58
2022-11-24T11:04:03.243Z,1.20
2022-11-24T11:06:00.258Z,1.33
2022-11-24T11:07:19.700Z,1.40
2022-11-24T11:08:25.954Z,1.20
2022-11-24T11:09:38.044Z,1.10
2022-11-24T11:10:47.900Z,1.60
2022-11-24T11:11:59.111Z,1.10
2022-11-24T11:13:26.662Z,1.75
2022-11-24T11:14:31.632Z,1.50
2022-11-24T11:15:35.642Z,2.00
2022-11-24T11:16:41.749Z,1.70
2022-11-24T11:17:45.474Z,1.67
2022-11-24T11:18:50.904Z,1.23
2022-11-24T11:20:01.947Z,1.55
2022-11-24T11:21:07.094Z,1.10
2022-11-24T11:22:17.625Z,1.40
2022-11-24T11:23:28.125Z,1.30
2022-11-24T11:24:31.784Z,1.25
2022-11-24T11:25:38.245Z,0.90
2022-11-24T11:26:44.229Z,1.75
2022-11-24T11:27:48.451Z,1.70
2022-11-24T11:31:17.984Z,1.60
2022-11-24T11:34:04.664Z,1.40
2022-11-24T11:35:13.334Z,1.40
2022-11-24T11:36:20.422Z,1.42
2022-11-24T11:37:27.546Z,2.00
2022-11-24T11:38:37.565Z,1.50
2022-11-24T11:39:48.603Z,1.63
2022-11-24T11:40:52.222Z,2.13
2022-11-24T11:42:09.250Z,1.65
2022-11-24T11:43:28.124Z,1.70
2022-11-24T11:44:38.015Z,1.50
2022-11-24T11:45:46.342Z,1.90
2022-11-24T11:46:49.999Z,2.00
2022-11-24T11:47:57.005Z,2.20
2022-11-24T11:49:00.377Z,2.13
2022-11-24T11:50:04.302Z,2.08
2022-11-24T11:51:27.115Z,1.33
2022-11-24T11:52:52.121Z,1.65
2022-11-24T11:54:06.908Z,1.80
2022-11-24T11:55:28.110Z,1.50
2022-11-24T11:56:34.133Z,1.92
2022-11-24T11:57:47.260Z,1.48
2022-11-24T11:59:07.384Z,1.48
2022-11-24T12:00:15.577Z,1.50
2022-11-24T12:01:36.401Z,1.90
2022-11-24T12:03:02.141Z,1.55
2022-11-24T12:04:16.911Z,2.13
2022-11-24T12:05:28.817Z,1.50
2022-11-24T12:07:02.822Z,1.35
2022-11-24T12:08:21.343Z,1.90
2022-11-24T12:09:37.803Z,1.30
2022-11-24T12:10:46.553Z,1.58
2022-11-24T12:11:58.052Z,1.10
2022-11-24T12:13:36.794Z,1.63
2022-11-24T12:14:48.899Z,1.38
2022-11-24T12:15:55.509Z,1.50
2022-11-24T12:17:07.071Z,1.40
2022-11-24T12:18:55.734Z,1.55
2022-11-24T12:20:08.136Z,1.65
2022-11-24T12:21:21.512Z,1.42
2022-11-24T12:22:38.171Z,1.70
2022-11-24T12:23:53.292Z,2.13
2022-11-24T12:25:05.834Z,1.38
2022-11-24T12:26:15.054Z,1.45
2022-11-24T12:27:26.161Z,1.35
2022-11-24T12:28:39.550Z,1.65
2022-11-24T12:30:03.559Z,1.40
2022-11-24T12:31:09.440Z,1.20
2022-11-24T12:32:29.038Z,1.00
2022-11-24T12:33:55.286Z,1.23
2022-11-24T12:35:08.970Z,1.60
2022-11-24T12:36:22.515Z,5.28
2022-11-24T12:37:40.729Z,2.38
2022-11-24T12:38:56.350Z,2.22
2022-11-24T12:40:06.662Z,2.25
2022-11-24T12:41:43.726Z,1.38
2022-11-24T12:42:58.743Z,1.30
2022-11-24T12:44:03.105Z,1.35
2022-11-24T12:45:13.253Z,1.23
2022-11-24T12:46:20.821Z,1.45
2022-11-24T12:47:30.508Z,1.10
2022-11-24T12:48:47.409Z,1.30
2022-11-24T12:50:02.801Z,1.80
2022-11-24T12:51:18.435Z,1.27
2022-11-24T12:52:26.074Z,1.42
2022-11-24T12:53:33.219Z,1.50
2022-11-24T12:54:41.343Z,1.48
2022-11-24T12:55:47.363Z,1.35
2022-11-24T12:57:00.796Z,1.52
2022-11-24T12:58:11.919Z,1.15
2022-11-24T12:59:25.536Z,1.60
2022-11-24T13:00:36.095Z,1.88
2022-11-24T13:01:47.131Z,3.00
2022-11-24T13:03:25.397Z,2.47
2022-11-24T13:04:36.055Z,1.83
2022-11-24T13:05:49.186Z,1.60
2022-11-24T13:06:55.612Z,1.50
2022-11-24T13:08:01.541Z,1.33
2022-11-24T13:09:10.240Z,2.28
2022-11-24T14:13:09.897Z,2.30
2022-11-24T14:14:21.847Z,1.80
2022-11-24T14:15:29.561Z,2.10
2022-11-24T14:16:32.973Z,1.90
2022-11-24T14:17:39.352Z,1.92
2022-11-24T14:18:43.788Z,1.90
2022-11-24T14:19:48.983Z,1.95
2022-11-24T14:20:51.305Z,2.00
2022-11-24T14:21:54.700Z,3.08
2022-11-24T14:22:58.119Z,8.90
2022-11-24T14:24:06.520Z,5.22
2022-11-24T14:25:23.864Z,4.90
2022-11-24T14:26:33.650Z,2.70
2022-11-24T14:27:40.770Z,2.45
2022-11-24T14:28:47.690Z,2.40
2022-11-24T14:29:56.074Z,2.25
2022-11-24T14:31:10.165Z,2.17
2022-11-24T14:32:17.611Z,2.20
2022-11-24T14:33:20.586Z,2.60
2022-11-24T14:34:25.594Z,1.60
2022-11-24T14:35:29.592Z,1.80
2022-11-24T14:36:33.076Z,2.65
2022-11-24T14:37:37.451Z,2.63
2022-11-24T14:38:40.964Z,3.30
2022-11-24T14:39:44.578Z,1.90
2022-11-24T14:40:50.090Z,2.17
2022-11-24T14:41:56.920Z,2.55
2022-11-24T14:42:59.303Z,1.83
2022-11-24T14:44:18.911Z,2.00
2022-11-24T14:45:22.583Z,2.00
2022-11-24T14:46:24.943Z,2.45
2022-11-24T14:47:32.253Z,1.83
2022-11-24T14:48:38.173Z,1.70
2022-11-24T14:49:44.425Z,2.20
2022-11-24T14:50:51.102Z,2.53
2022-11-24T14:51:58.888Z,1.63
2022-11-24T14:53:02.276Z,1.95
2022-11-24T14:54:06.570Z,2.30
2022-11-24T14:55:25.384Z,2.00
2022-11-24T14:56:30.644Z,2.03
2022-11-24T14:57:35.778Z,1.83
2022-11-24T14:58:42.180Z,2.40
2022-11-24T15:00:17.036Z,1.70
2022-11-24T15:01:23.345Z,2.22
2022-11-24T15:02:44.119Z,1.30
2022-11-24T15:03:47.483Z,1.40
2022-11-24T15:05:04.941Z,1.10
2022-11-24T15:06:18.139Z,1.42
2022-11-24T15:07:27.400Z,1.48
2022-11-24T15:08:35.899Z,1.90
2022-11-24T15:09:53.070Z,2.55
2022-11-24T15:11:01.587Z,1.30
2022-11-24T15:12:09.310Z,1.38
2022-11-24T15:13:19.495Z,1.40
2022-11-24T15:14:32.893Z,1.38
2022-11-24T15:15:39.824Z,1.77
2022-11-24T15:16:43.342Z,1.40
2022-11-24T15:17:48.355Z,1.55
2022-11-24T15:18:59.435Z,1.73
2022-11-24T15:20:09.254Z,2.45
2022-11-24T15:21:19.346Z,2.50
2022-11-24T15:22:40.815Z,2.58
2022-11-24T15:24:17.117Z,2.25
2022-11-24T15:25:32.777Z,1.83
2022-11-24T15:26:42.158Z,2.10
2022-11-24T15:27:44.873Z,1.80
2022-11-24T15:28:48.848Z,2.00
2022-11-24T15:29:52.674Z,1.77
2022-11-24T15:31:01.368Z,2.10
2022-11-24T15:32:15.125Z,1.92
2022-11-24T15:33:20.630Z,2.05
2022-11-24T15:34:24.083Z,1.63
2022-11-24T15:35:30.054Z,1.60
2022-11-24T15:36:33.667Z,1.30
2022-11-24T15:37:36.181Z,1.60
2022-11-24T15:38:39.621Z,2.00
2022-11-24T15:39:42.323Z,1.30
2022-11-24T15:41:56.368Z,2.15
2022-11-24T15:48:17.522Z,3.05
2022-11-24T15:49:50.279Z,2.50
2022-11-24T15:52:05.424Z,2.20
2022-11-24T15:54:56.211Z,1.83
2022-11-24T15:56:57.423Z,1.80
2022-11-24T16:03:45.838Z,2.45
2022-11-24T16:12:44.704Z,4.80
2022-11-24T18:11:47.233Z,11.55
2022-11-24T18:12:59.843Z,10.10
2022-11-24T18:14:10.482Z,9.85
2022-11-24T18:15:23.976Z,9.50
2022-11-24T18:16:55.804Z,8.50
2022-11-24T18:18:09.574Z,8.45
2022-11-24T18:19:28.929Z,8.65
2022-11-24T18:20:43.837Z,8.45
2022-11-24T18:22:15.747Z,9.48
2022-11-24T18:23:23.943Z,9.57
2022-11-24T18:25:11.661Z,8.93
2022-11-24T18:26:26.478Z,10.00
2022-11-24T18:27:46.316Z,9.85
2022-11-24T18:28:54.322Z,8.52
2022-11-24T18:29:56.759Z,9.65
2022-11-24T18:31:07.116Z,9.23
2022-11-24T18:32:25.804Z,7.97
2022-11-24T18:33:32.617Z,8.15
2022-11-24T18:34:39.888Z,8.13
2022-11-24T18:35:56.252Z,7.43
2022-11-24T18:36:59.971Z,7.07